Latest Coastal Weather Observations for Cape Grim

IDV60701

Issued at 1:31 pm EST Monday 26 September 2016 (issued every 10 minutes, with the page automatically refreshed every 10 minutes)

About coastal observations | Map of coastal stations | Coastal observations for VIC | Marine services | Other Formats
Station Details ID: 091331 Name: CAPE GRIM Lat: -40.68 Lon: 144.69 Height: 86.0 m
Data from the previous 72 hours. | See also: Recent months at Cape Grim
Date/Time
EST
Temp
°C
Wind Pressure Rain since
9am
mm
Weather Cloud Vis
km
Sea
Height
m
Swell
Dir  Spd
kts
Gust
kts
hPa Trend Height
m
Period
s
Dir
26/01:30pm 13.2 NW 10 14 1008.8 - 0.2 - - - - - - -
26/01:00pm 12.6 NNW 12 14 1009.2 - 0.2 - - - - - - -
26/12:30pm 12.8 NNW 12 15 1009.5 - 0.2 - Partly cloudy - - - - -
26/12:00pm 12.5 NNW 11 14 1009.8 - 0.2 - Mostly clear - - - - -
26/11:30am 13.0 NNW 10 13 1010.1 - 0.2 - - - - - - -
26/11:00am 12.4 NNW 11 14 1010.3 - 0.2 - - - - - - -
26/10:30am 12.3 NNW 8 11 1010.5 - 0.2 - Partly cloudy - - - - -
26/10:00am 11.9 N 7 9 1010.7 - 0.2 - Partly cloudy - - - - -
26/09:30am 10.9 NW 11 16 1010.9 - 0.0 - Partly cloudy - - - - -
26/09:00am 11.9 N 8 10 1010.8 - 0.0 - Mostly cloudy - - - - -
26/08:30am 11.2 N 7 9 1011.0 - 0.0 - Cloudy - - - - -
26/08:00am 11.4 NNW 8 10 1011.0 - 0.0 - Partly cloudy - - - - -
26/07:30am 10.4 NNW 8 11 1011.1 - 0.0 - - - - - - -
26/07:00am 9.7 NW 9 11 1011.0 - 0.0 - - - - - - -
26/06:30am 9.1 NW 8 10 1010.9 - 0.0 - Partly cloudy - - - - -
26/06:00am 9.3 NNW 9 11 1010.8 - 0.0 - Cloudy - - - - -
26/05:30am 9.0 NW 8 10 1010.8 - 0.0 - Partly cloudy - - - - -
26/05:00am 9.3 NW 8 11 1010.7 - 0.0 - Partly cloudy - - - - -
26/04:30am 9.2 NW 8 11 1010.8 - 0.0 - Partly cloudy - - - - -
26/04:00am 8.7 WNW 7 9 1010.9 - 0.0 - Partly cloudy - - - - -
26/03:30am 9.0 WNW 13 17 1011.0 - 0.0 - Partly cloudy - - - - -
26/03:00am 9.8 NW 10 15 1011.1 - 0.0 - Cloudy - - - - -
26/02:30am 9.4 WNW 10 13 1011.3 - 0.0 - Partly cloudy - - - - -
26/02:00am 9.1 NW 7 9 1011.6 - 0.0 - Partly cloudy - - - - -
26/01:30am 9.2 W 9 11 1011.8 - 0.0 - Partly cloudy - - - - -
26/01:00am 9.9 WNW 10 18 1011.9 - 0.0 - Partly cloudy - - - - -
26/12:30am 9.3 NW 7 8 1011.8 - 0.0 - Partly cloudy - - - - -
26/12:00am 9.2 WNW 6 8 1011.9 - 0.0 - Cloudy - - - - -
 
Date/Time
EST
Temp
°C
Wind Pressure Rain since
9am
mm
Weather Cloud Vis
km
Sea
Height
m
Swell
Dir  Spd
kts
Gust
kts
hPa Trend Height
m
Period
s
Dir
25/11:30pm 9.9 W 7 9 1012.1 - 0.0 - - - - - - -
25/11:00pm 10.0 W 7 10 1012.1 - 0.0 - - - - - - -
25/10:30pm 10.1 W 8 12 1012.3 - 0.0 - - - - - - -
25/10:00pm 10.0 W 10 15 1012.4 - 0.0 - - - - - - -
25/09:30pm 10.1 W 10 15 1012.5 - 0.0 - Partly cloudy - - - - -
25/09:00pm 10.4 W 11 15 1012.4 - 0.0 - Cloudy - - - - -
25/08:30pm 10.4 W 8 14 1012.2 - 0.0 - Partly cloudy - - - - -
25/08:00pm 10.2 W 11 17 1011.9 - 0.0 - Partly cloudy - - - - -
25/07:30pm 10.4 W 13 19 1011.5 - 0.0 - Partly cloudy - - - - -
25/07:00pm 10.6 WSW 8 14 1011.2 - 0.0 - Partly cloudy - - - - -
25/06:30pm 10.5 WSW 9 15 1010.8 - 0.0 - Partly cloudy - - - - -
25/06:00pm 10.3 SW 13 17 1010.6 - 0.0 - Partly cloudy - - - - -
25/05:30pm 10.6 SW 15 20 1010.5 - 0.0 - Partly cloudy - - - - -
25/05:00pm 10.4 SW 17 22 1010.3 - 0.0 - Partly cloudy - - - - -
25/04:30pm 10.8 SW 16 23 1010.0 - 0.0 - Partly cloudy - - - - -
25/04:00pm 11.2 SW 17 23 1009.6 - 0.0 - - - - - - -
25/03:30pm 11.1 SW 17 24 1009.4 - 0.0 - Partly cloudy - - - - -
25/03:00pm 11.3 SW 16 24 1009.3 - 0.0 - Partly cloudy - - - - -
25/02:48pm 11.3 SW 15 26 1009.2 - 0.0 - Partly cloudy - - - - -
25/02:30pm 11.1 SW 16 25 1009.0 - 0.0 - Partly cloudy - - - - -
25/02:00pm 11.3 SW 17 24 1008.9 - 0.0 - Partly cloudy - - - - -
25/01:30pm 10.8 SW 19 25 1008.8 - 0.0 - Partly cloudy - - - - -
25/01:00pm 10.8 SW 20 26 1008.7 - 0.0 - Partly cloudy - - - - -
25/12:33pm 11.3 SW 18 28 1008.7 - 0.0 - Partly cloudy - - - - -
25/12:30pm 11.2 SW 17 26 1008.6 - 0.0 - Partly cloudy - - - - -
25/12:00pm 11.0 SW 19 27 1008.5 - 0.0 - Partly cloudy - - - - -
25/11:36am 10.7 WSW 15 26 1008.3 - 0.0 - Partly cloudy - - - - -
25/11:30am 10.8 WSW 14 22 1008.3 - 0.0 - Partly cloudy - - - - -
25/11:01am 10.5 WSW 15 29 1008.1 - 0.0 - Partly cloudy - - - - -
25/11:00am 10.4 WSW 14 29 1008.1 - 0.0 - Partly cloudy - - - - -
25/10:30am 10.8 WSW 14 25 1007.8 - 0.0 - Partly cloudy - - - - -
25/10:00am 9.6 W 18 30 1007.7 - 0.0 - Partly cloudy - - - - -
25/09:37am 10.5 W 15 25 1007.5 - 0.0 - Partly cloudy - - - - -
25/09:30am 10.3 WSW 14 23 1007.5 - 0.0 - Partly cloudy - - - - -
25/09:00am 10.3 W 15 25 1007.2 - 8.0 - - - - - - -
25/08:30am 10.2 W 17 29 1006.8 - 8.0 - Partly cloudy - - - - -
25/08:29am 10.2 W 17 29 1006.8 - 8.0 - Partly cloudy - - - - -
25/08:00am 10.2 W 17 24 1006.7 - 8.0 - Partly cloudy - - - - -
25/07:30am 10.2 W 16 27 1006.2 - 8.0 - Partly cloudy - - - - -
25/07:00am 10.2 W 15 25 1006.0 - 8.0 - Partly cloudy - - - - -
25/06:35am 10.3 WSW 15 25 1005.6 - 8.0 - Partly cloudy - - - - -
25/06:30am 10.2 WSW 14 25 1005.5 - 8.0 - Partly cloudy - - - - -
25/06:00am 9.8 WSW 15 28 1005.4 - 8.0 - Cloudy - - - - -
25/05:52am 10.1 W 16 28 1005.2 - 8.0 - Partly cloudy - - - - -
25/05:30am 10.6 W 15 23 1005.0 - 8.0 - Partly cloudy - - - - -
25/05:00am 9.4 WSW 17 27 1004.9 - 8.0 - Partly cloudy - - - - -
25/04:30am 9.7 W 16 27 1004.6 - 7.8 - Partly cloudy - - - - -
25/04:18am 10.5 W 15 25 1004.5 - 7.6 - Partly cloudy - - - - -
25/04:00am 11.0 W 15 24 1004.3 - 7.6 - Partly cloudy - - - - -
25/03:35am 10.9 W 15 25 1003.9 - 7.6 - - - - - - -
25/03:30am 10.9 W 16 23 1003.9 - 7.6 - - - - - - -
25/03:00am 11.0 W 17 26 1003.8 - 7.6 - Mostly cloudy - - - - -
25/02:42am 11.1 WSW 15 26 1003.8 - 7.6 - Partly cloudy - - - - -
25/02:30am 11.3 W 14 25 1003.8 - 7.6 - Partly cloudy - - - - -
25/02:00am 11.2 W 15 25 1003.6 - 7.6 - Partly cloudy - - - - -
25/01:43am 11.4 W 16 27 1003.5 - 7.6 - Partly cloudy - - - - -
25/01:30am 11.2 W 16 24 1003.4 - 7.6 - Partly cloudy - - - - -
25/01:08am 11.3 W 19 29 1003.2 - 7.6 - Cloudy - - - - -
25/01:00am 11.3 W 18 27 1003.2 - 7.6 - Partly cloudy - - - - -
25/12:44am 11.2 W 18 26 1003.0 - 7.6 - Partly cloudy - - - - -
25/12:30am 11.1 W 18 25 1003.1 - 7.6 - Partly cloudy - - - - -
25/12:00am 11.5 W 16 23 1002.9 - 7.6 Recent precip. Cloudy - - - - -
 
Date/Time
EST
Temp
°C
Wind Pressure Rain since
9am
mm
Weather Cloud Vis
km
Sea
Height
m
Swell
Dir  Spd
kts
Gust
kts
hPa Trend Height
m
Period
s
Dir
24/11:52pm 11.7 NNW 20 31 1002.9 - 7.6 - Partly cloudy - - - - -
24/11:49pm 12.0 N 21 31 1002.9 - 7.6 - Partly cloudy - - - - -
24/11:32pm 12.1 N 22 28 1002.6 - 5.6 - Partly cloudy - - - - -
24/11:30pm 12.1 N 21 28 1002.6 - 5.6 - Partly cloudy - - - - -
24/11:27pm 12.1 N 22 32 1002.7 - 5.6 - Partly cloudy - - - - -
24/11:21pm 12.0 N 24 32 1002.7 - 5.4 - Partly cloudy - - - - -
24/11:00pm 12.1 N 22 29 1003.0 - 4.8 - Partly cloudy - - - - -
24/10:49pm 12.2 N 24 29 1003.1 - 4.2 - Partly cloudy - - - - -
24/10:30pm 12.3 N 23 29 1003.0 - 3.6 - Partly cloudy - - - - -
24/10:00pm 12.3 N 21 25 1003.3 - 2.8 - Partly cloudy - - - - -
24/09:30pm 12.5 N 21 26 1003.6 - 1.2 - Partly cloudy - - - - -
24/09:00pm 12.6 N 20 25 1003.7 - 0.2 Recent precip. Cloudy - - - - -
24/08:30pm 13.1 N 23 29 1003.7 - 0.0 - Partly cloudy - - - - -
24/08:00pm 13.2 N 19 24 1003.7 - 0.0 - Cloudy - - - - -
24/07:30pm 13.7 N 21 27 1003.4 - 0.0 - Partly cloudy - - - - -
24/07:22pm 13.7 NNE 19 26 1003.3 - 0.0 - Partly cloudy - - - - -
24/07:00pm 12.6 NE 12 15 1003.6 - 0.0 - Partly cloudy - - - - -
24/06:30pm 12.7 NE 13 17 1003.5 - 0.0 - Partly cloudy - - - - -
24/06:00pm 12.8 NE 12 16 1003.6 - 0.0 - Cloudy - - - - -
24/05:30pm 13.0 NE 15 17 1003.8 - 0.0 - Partly cloudy - - - - -
24/05:00pm 13.1 NNE 16 20 1003.9 - 0.0 - Partly cloudy - - - - -
24/04:30pm 13.4 NNE 15 19 1004.1 - 0.0 - Partly cloudy - - - - -
24/04:00pm 13.5 NNE 17 21 1004.2 - 0.0 - Cloudy - - - - -
24/03:30pm 13.6 N 18 21 1004.4 - 0.0 - - - - - - -
24/03:00pm 13.7 N 17 21 1004.5 - 0.0 - Cloudy - - - - -
24/02:30pm 14.0 N 16 19 1004.6 - 0.0 - - - - - - -
24/02:00pm 13.8 N 15 19 1004.7 - 0.0 - - - - - - -
24/01:30pm 14.6 N 16 19 1005.1 - 0.0 - - - - - - -
24/01:00pm 14.2 N 18 22 1005.6 - 0.0 - - - - - - -
24/12:30pm 15.5 N 18 23 1006.2 - 0.0 - Partly cloudy - - - - -
24/12:00pm 15.0 N 17 22 1006.3 - 0.0 - Partly cloudy - - - - -
24/11:30am 15.2 N 18 21 1006.4 - 0.0 - - - - - - -
24/11:00am 15.5 NNE 14 18 1006.9 - 0.0 - Partly cloudy - - - - -
24/10:30am 15.5 N 17 22 1007.0 - 0.0 - - - - - - -
24/10:00am 14.3 N 19 23 1007.6 - 0.0 - Partly cloudy - - - - -
24/09:30am 14.6 NNE 18 22 1008.1 - 0.0 - Partly cloudy - - - - -
24/09:18am 13.5 NNE 17 21 1008.2 - 0.0 - Partly cloudy - - - - -
24/09:00am 13.5 NNE 17 21 1008.2 - 0.0 - Cloudy - - - - -
24/08:30am 12.8 NE 17 22 1008.0 - 0.0 - Cloudy - - - - -
24/08:00am 12.5 NE 17 22 1008.1 - 0.0 - Cloudy - - - - -
24/07:30am 12.5 NE 18 21 1008.2 - 0.0 - Partly cloudy - - - - -
24/07:00am 12.2 NE 17 21 1008.5 - 0.0 - Partly cloudy - - - - -
24/06:30am 12.1 NE 17 21 1008.7 - 0.0 - Partly cloudy - - - - -
24/06:00am 12.0 NE 18 21 1008.7 - 0.0 - Cloudy - - - - -
24/05:30am 11.9 NE 19 24 1008.8 - 0.0 - Partly cloudy - - - - -
24/05:00am 11.9 ENE 19 25 1008.8 - 0.0 - Partly cloudy - - - - -
24/04:30am 11.8 ENE 19 23 1008.8 - 0.0 - Partly cloudy - - - - -
24/04:00am 11.7 ENE 20 25 1008.8 - 0.0 - Partly cloudy - - - - -
24/03:44am 11.7 ENE 19 24 1009.0 - 0.0 - Partly cloudy - - - - -
24/03:42am 11.7 ENE 19 24 1009.1 - 0.0 - Partly cloudy - - - - -
24/03:30am 11.7 ENE 19 21 1009.3 - 0.0 - Partly cloudy - - - - -
24/03:00am 11.6 ENE 18 22 1009.8 - 0.0 - Cloudy - - - - -
24/02:30am 11.6 ENE 18 23 1010.3 - 0.0 - Cloudy - - - - -
24/02:00am 11.6 ENE 17 22 1010.7 - 0.0 - Cloudy - - - - -
24/01:34am 11.5 ENE 19 24 1010.9 - 0.0 - Partly cloudy - - - - -
24/01:30am 11.5 ENE 19 24 1011.0 - 0.0 - Partly cloudy - - - - -
24/01:00am 11.3 ENE 21 26 1010.9 - 0.0 - Partly cloudy - - - - -
24/12:50am 11.3 ENE 22 26 1011.0 - 0.0 - Partly cloudy - - - - -
24/12:30am 11.3 ENE 19 25 1011.1 - 0.0 - Partly cloudy - - - - -
24/12:00am 11.3 ENE 21 27 1011.0 - 0.0 - Mostly cloudy - - - - -
 
Date/Time
EST
Temp
°C
Wind Pressure Rain since
9am
mm
Weather Cloud Vis
km
Sea
Height
m
Swell
Dir  Spd
kts
Gust
kts
hPa Trend Height
m
Period
s
Dir
23/11:30pm 11.3 ENE 19 23 1011.2 - 0.0 - Partly cloudy - - - - -
23/11:00pm 11.3 ENE 19 24 1011.9 - 0.0 - Partly cloudy - - - - -
23/10:30pm 11.2 ENE 17 21 1012.1 - 0.0 - Partly cloudy - - - - -
23/10:19pm 11.1 ENE 17 23 1012.2 - 0.0 - Partly cloudy - - - - -
23/10:00pm 10.9 ENE 18 23 1012.0 - 0.0 - - - - - - -
23/09:30pm 10.6 ENE 18 21 1012.2 - 0.0 - - - - - - -
23/09:00pm 10.5 ENE 17 21 1012.5 - 0.0 - Mostly clear - - - - -
23/08:30pm 10.4 ENE 15 19 1012.6 - 0.0 - - - - - - -
23/08:00pm 10.1 ENE 13 15 1012.9 - 0.0 - - - - - - -
23/07:30pm 9.8 ENE 10 12 1013.2 - 0.0 - - - - - - -
23/07:00pm 9.6 ENE 11 12 1013.3 - 0.0 - - - - - - -
23/06:30pm 9.5 NE 9 11 1013.4 - 0.0 - - - - - - -
23/06:00pm 10.3 ENE 10 12 1013.2 - 0.0 - - - - - - -
23/05:30pm 11.1 ENE 11 13 1013.2 - 0.0 - - - - - - -
23/05:00pm 11.7 NE 8 11 1013.4 - 0.0 - - - - - - -
23/04:30pm 12.4 NNE 7 9 1013.5 - 0.0 - - - - - - -
23/04:00pm 12.3 N 7 9 1013.5 - 0.0 - - - - - - -
23/03:30pm 12.7 N 5 8 1013.6 - 0.0 - - - - - - -
23/03:00pm 12.4 NNW 5 7 1013.9 - 0.0 - - - - - - -
23/02:30pm 12.4 WNW 6 8 1014.4 - 0.0 - - - - - - -
23/02:07pm 12.5 W 6 9 1014.7 - 0.0 - Partly cloudy - - - - -
23/02:00pm 12.7 W 7 9 1014.7 - 0.0 - Partly cloudy - - - - -
23/01:32pm 12.4 WNW 8 11 1014.9 - 0.0 - Partly cloudy - - - - -

Other Formats:

Comma delimited format used in spreadsheet applications
http://www.bom.gov.au/fwo/IDV60701/IDV60701.95954.axf

JavaScript Object Notation format (JSON) in row-major order
http://www.bom.gov.au/fwo/IDV60701/IDV60701.95954.json